Time;durP1;ratioP1;P1;durP2;ratioP2;P2;SDS_P1;SDS_P2;PMS_P1;PMS_P2;Temp;Humidity;BMP_temperature;BMP_pressure;BME280_temperature;BME280_humidity;BME280_pressure;Samples;Min_cycle;Max_cycle;Signal;HPM_P1;HPM_P2
2022/12/10 00:02:10;;;;;;;27.13;16.70;;;5.50;99.90;;;;;;5026059;28;20716;-71
2022/12/10 00:04:35;;;;;;;25.80;15.57;;;5.50;99.90;;;;;;5030749;28;20326;-70
2022/12/10 00:07:01;;;;;;;26.40;15.80;;;5.40;99.90;;;;;;5029232;28;20188;-71
2022/12/10 00:09:26;;;;;;;28.43;16.83;;;5.50;99.90;;;;;;5029137;28;20874;-71
2022/12/10 00:11:52;;;;;;;23.00;15.90;;;5.50;99.90;;;;;;5028618;28;20184;-71
2022/12/10 00:14:18;;;;;;;24.17;17.10;;;5.40;99.90;;;;;;5031141;28;20857;-73
2022/12/10 00:16:43;;;;;;;24.53;15.80;;;5.40;99.90;;;;;;5029774;28;20208;-71
2022/12/10 00:19:09;;;;;;;21.90;15.27;;;5.40;99.90;;;;;;5028035;28;20230;-72
2022/12/10 00:21:36;;;;;;;24.50;15.43;;;5.40;99.90;;;;;;5030975;28;20236;-71
2022/12/10 00:24:03;;;;;;;26.30;17.00;;;5.40;99.90;;;;;;5033334;28;20196;-71
2022/12/10 00:26:31;;;;;;;24.80;17.63;;;5.40;99.90;;;;;;5034370;28;20426;-71
2022/12/10 00:28:57;;;;;;;24.00;15.90;;;5.40;99.90;;;;;;5031917;28;20439;-71
2022/12/10 00:31:27;;;;;;;22.93;15.83;;;5.40;99.90;;;;;;5032133;28;20450;-71
2022/12/10 00:33:57;;;;;;;22.07;14.90;;;5.40;99.90;;;;;;5030851;28;20594;-72
2022/12/10 00:36:26;;;;;;;25.50;15.63;;;5.30;99.90;;;;;;5030606;28;21456;-71
2022/12/10 00:38:52;;;;;;;23.47;15.20;;;5.30;99.90;;;;;;5031468;28;20491;-70
2022/12/10 00:41:17;;;;;;;25.73;16.77;;;5.30;99.90;;;;;;5031053;28;20529;-70
2022/12/10 00:43:43;;;;;;;25.67;15.80;;;5.30;99.90;;;;;;5032731;28;21077;-71
2022/12/10 00:46:10;;;;;;;24.97;16.50;;;5.30;99.90;;;;;;5035657;28;20183;-72
2022/12/10 00:48:36;;;;;;;25.60;15.40;;;5.30;99.90;;;;;;5035806;28;21398;-71
2022/12/10 00:51:06;;;;;;;25.47;16.30;;;5.30;99.90;;;;;;5036611;28;20447;-72
2022/12/10 00:53:33;;;;;;;25.07;16.03;;;5.20;99.90;;;;;;5036453;28;20215;-71
2022/12/10 00:55:59;;;;;;;27.97;17.23;;;5.20;99.90;;;;;;5020533;28;20572;-72
2022/12/10 00:58:30;;;;;;;24.87;15.10;;;5.20;99.90;;;;;;5032628;28;20432;-69
2022/12/10 01:01:06;;;;;;;25.07;17.43;;;5.20;99.90;;;;;;5017984;28;20525;-72
2022/12/10 01:03:32;;;;;;;27.77;16.83;;;5.20;99.90;;;;;;5032797;28;20464;-70
2022/12/10 01:06:07;;;;;;;23.60;16.00;;;5.20;99.90;;;;;;5036476;28;20438;-71
2022/12/10 01:08:33;;;;;;;25.80;16.93;;;5.20;99.90;;;;;;5031056;28;20202;-71
2022/12/10 01:10:58;;;;;;;26.20;15.50;;;5.20;99.90;;;;;;5030779;28;20436;-71
2022/12/10 01:13:24;;;;;;;25.50;16.73;;;5.20;99.90;;;;;;5036904;28;20246;-70
2022/12/10 01:15:49;;;;;;;23.93;14.40;;;5.20;99.90;;;;;;5034710;28;20182;-70
2022/12/10 01:18:15;;;;;;;26.30;16.27;;;5.10;99.90;;;;;;5035431;28;20501;-71
2022/12/10 01:20:40;;;;;;;24.33;15.40;;;5.10;99.90;;;;;;5033345;28;20271;-70
2022/12/10 01:23:06;;;;;;;24.07;15.13;;;5.10;99.90;;;;;;5034259;28;20191;-70
2022/12/10 01:25:31;;;;;;;25.80;16.07;;;5.20;99.90;;;;;;5032905;28;20344;-70
2022/12/10 01:27:57;;;;;;;23.57;15.03;;;5.20;99.90;;;;;;5031850;28;20227;-70
2022/12/10 01:30:22;;;;;;;28.87;16.50;;;5.20;99.90;;;;;;5036989;28;20221;-71
2022/12/10 01:32:48;;;;;;;25.30;15.97;;;5.20;99.90;;;;;;5035311;28;20221;-71
2022/12/10 01:35:14;;;;;;;26.03;17.30;;;5.20;99.90;;;;;;5035393;28;20683;-71
2022/12/10 01:37:39;;;;;;;24.43;17.73;;;5.20;99.90;;;;;;5036183;28;20215;-70
2022/12/10 01:40:05;;;;;;;24.60;16.00;;;5.20;99.90;;;;;;5035011;28;20684;-70
2022/12/10 01:42:31;;;;;;;24.80;16.47;;;5.20;99.90;;;;;;5038932;28;20184;-70
2022/12/10 01:45:04;;;;;;;26.27;17.17;;;5.20;99.90;;;;;;5017477;28;20975;-70
2022/12/10 01:47:29;;;;;;;30.23;16.47;;;5.20;99.90;;;;;;5039760;28;20184;-70
2022/12/10 01:49:57;;;;;;;24.37;16.17;;;5.20;99.90;;;;;;5038228;28;20878;-71
2022/12/10 01:52:22;;;;;;;24.50;15.57;;;5.20;99.90;;;;;;5036625;28;20599;-71
2022/12/10 01:54:48;;;;;;;21.53;15.23;;;5.20;99.90;;;;;;5034556;28;20551;-71
2022/12/10 01:57:23;;;;;;;25.50;15.10;;;5.20;99.90;;;;;;5035017;28;21033;-71
2022/12/10 01:59:57;;;;;;;22.17;14.10;;;5.20;99.90;;;;;;5032377;28;20229;-71
2022/12/10 02:02:43;;;;;;;25.20;15.87;;;5.10;99.90;;;;;;5034722;28;20634;-71
2022/12/10 02:05:38;;;;;;;20.50;14.63;;;5.20;99.90;;;;;;5036596;28;20454;-71
2022/12/10 02:08:24;;;;;;;25.20;15.97;;;5.20;99.90;;;;;;5035815;28;20446;-71
2022/12/10 02:11:18;;;;;;;24.27;17.70;;;5.10;99.90;;;;;;5015820;28;20521;-70
2022/12/10 02:13:58;;;;;;;22.90;14.97;;;5.10;99.90;;;;;;5032225;28;20481;-71
2022/12/10 02:16:36;;;;;;;24.07;15.90;;;5.10;99.90;;;;;;5036147;28;20553;-71
2022/12/10 02:19:11;;;;;;;22.93;15.40;;;5.10;99.90;;;;;;5034961;28;20477;-71
2022/12/10 02:21:40;;;;;;;26.30;16.63;;;5.10;99.90;;;;;;5033008;28;20440;-71
2022/12/10 02:24:11;;;;;;;28.97;17.07;;;5.10;99.90;;;;;;5033747;28;20446;-71
2022/12/10 02:26:43;;;;;;;23.17;15.07;;;5.10;99.90;;;;;;5035998;28;20863;-71
2022/12/10 02:29:16;;;;;;;23.60;14.43;;;5.10;99.90;;;;;;5033865;28;20933;-71
2022/12/10 02:31:56;;;;;;;25.20;15.90;;;5.10;99.90;;;;;;5030931;28;20442;-72
2022/12/10 02:34:24;;;;;;;26.47;14.90;;;5.10;99.90;;;;;;5031127;28;20469;-71
2022/12/10 02:36:52;;;;;;;25.43;14.93;;;5.10;99.90;;;;;;5034195;28;20462;-72
2022/12/10 02:39:24;;;;;;;24.10;16.13;;;5.10;99.90;;;;;;5031122;28;20454;-72
2022/12/10 02:41:53;;;;;;;25.80;16.43;;;5.10;99.90;;;;;;5031819;28;20485;-72
2022/12/10 02:44:21;;;;;;;27.40;14.90;;;5.10;99.90;;;;;;5030741;28;20492;-71
2022/12/10 02:46:52;;;;;;;24.93;15.77;;;5.10;99.90;;;;;;5029784;28;20445;-71
2022/12/10 02:49:18;;;;;;;25.23;16.17;;;5.10;99.90;;;;;;5031103;28;20541;-72
2022/12/10 02:51:43;;;;;;;27.47;16.17;;;5.10;99.90;;;;;;5031375;28;20496;-72
2022/12/10 02:54:34;;;;;;;26.63;16.70;;;5.10;99.90;;;;;;5030160;28;20470;-72
2022/12/10 02:57:10;;;;;;;22.17;15.33;;;5.10;99.90;;;;;;5033696;28;20212;-72
2022/12/10 02:59:47;;;;;;;24.60;17.13;;;5.10;99.90;;;;;;5028838;28;20453;-72
2022/12/10 03:02:15;;;;;;;23.43;15.30;;;5.10;99.90;;;;;;5031438;28;20441;-72
2022/12/10 03:05:05;;;;;;;25.50;15.33;;;5.00;99.90;;;;;;5036117;28;20454;-71
2022/12/10 03:07:39;;;;;;;25.60;15.97;;;5.00;99.90;;;;;;5033336;28;20568;-70
2022/12/10 03:10:32;;;;;;;24.77;15.60;;;5.00;99.90;;;;;;5034018;28;20811;-71
2022/12/10 03:13:06;;;;;;;27.43;16.00;;;5.00;99.90;;;;;;5031215;28;20444;-71
2022/12/10 03:15:35;;;;;;;23.10;15.53;;;5.00;99.90;;;;;;5035681;28;20460;-71
2022/12/10 03:18:05;;;;;;;23.37;15.57;;;5.00;99.90;;;;;;5030016;28;20547;-71
2022/12/10 03:20:38;;;;;;;24.17;15.80;;;4.90;99.90;;;;;;5036654;28;20952;-71
2022/12/10 03:23:08;;;;;;;26.43;17.07;;;4.90;99.90;;;;;;5033556;28;20525;-71
2022/12/10 03:25:36;;;;;;;25.73;15.67;;;4.90;99.90;;;;;;5031799;28;20452;-71
2022/12/10 03:28:01;;;;;;;21.93;14.40;;;4.90;99.90;;;;;;5017448;28;20922;-70
2022/12/10 03:30:29;;;;;;;25.30;16.03;;;4.90;99.90;;;;;;5033818;28;20472;-71
2022/12/10 03:32:54;;;;;;;23.10;15.30;;;4.90;99.90;;;;;;5028401;28;20197;-71
2022/12/10 03:35:22;;;;;;;32.60;19.17;;;4.90;99.90;;;;;;5034671;28;20946;-71
2022/12/10 03:37:49;;;;;;;25.37;15.70;;;5.00;99.90;;;;;;5029885;28;20212;-71
2022/12/10 03:40:17;;;;;;;25.30;16.67;;;5.00;99.90;;;;;;5033152;28;20995;-71
2022/12/10 03:42:43;;;;;;;25.37;16.80;;;4.90;99.90;;;;;;5031781;28;20441;-71
2022/12/10 03:45:09;;;;;;;33.53;18.03;;;4.90;99.90;;;;;;5032928;28;20450;-71
2022/12/10 03:47:35;;;;;;;29.10;18.73;;;4.80;99.90;;;;;;5030571;28;20808;-71
2022/12/10 03:50:01;;;;;;;26.33;17.20;;;4.90;99.90;;;;;;5030636;28;21066;-71
2022/12/10 03:52:26;;;;;;;31.03;17.73;;;4.90;99.90;;;;;;5033112;28;21253;-71
2022/12/10 03:54:52;;;;;;;28.27;15.80;;;4.90;99.90;;;;;;5031738;28;20239;-71
2022/12/10 03:57:17;;;;;;;33.93;17.80;;;4.90;99.90;;;;;;5026338;28;20208;-70
2022/12/10 03:59:43;;;;;;;26.13;16.17;;;4.90;99.90;;;;;;5030294;28;20185;-70
2022/12/10 04:02:10;;;;;;;26.10;16.30;;;5.00;99.90;;;;;;5028244;28;20172;-70
2022/12/10 04:04:36;;;;;;;25.00;16.63;;;5.00;99.90;;;;;;5034905;28;20642;-71
2022/12/10 04:07:02;;;;;;;28.80;18.20;;;5.00;99.90;;;;;;5028063;28;20440;-70
2022/12/10 04:09:27;;;;;;;29.40;18.70;;;4.90;99.90;;;;;;5030450;28;20183;-70
2022/12/10 04:11:59;;;;;;;26.27;16.80;;;4.90;99.90;;;;;;5031274;28;20477;-70
2022/12/10 04:17:11;;;;;;;25.57;17.93;;;4.90;99.90;;;;;;5015191;28;20576;-71
2022/12/10 04:19:37;;;;;;;31.97;17.80;;;4.90;99.90;;;;;;5035012;28;21006;-70
2022/12/10 04:26:51;;;;;;;25.50;17.00;;;5.00;99.90;;;;;;5033870;28;20247;-70
2022/12/10 04:27:51;;;;;;;27.83;17.30;;;4.90;99.90;;;;;;5033985;28;20507;-70
2022/12/10 04:30:16;;;;;;;30.17;17.80;;;4.90;99.90;;;;;;5037570;28;20926;-70
2022/12/10 04:32:42;;;;;;;27.53;16.97;;;4.80;99.90;;;;;;5038303;28;20183;-71
2022/12/10 04:35:08;;;;;;;33.93;19.50;;;4.80;99.90;;;;;;5036338;28;20199;-70
2022/12/10 04:37:34;;;;;;;27.13;17.43;;;4.80;99.90;;;;;;5035457;28;20216;-70
2022/12/10 04:39:59;;;;;;;29.60;18.73;;;4.80;99.90;;;;;;5018102;28;20931;-70
2022/12/10 04:42:25;;;;;;;29.80;18.93;;;4.80;99.90;;;;;;5034486;28;20184;-70
2022/12/10 04:44:51;;;;;;;26.10;16.70;;;4.80;99.90;;;;;;5036207;28;20677;-71
2022/12/10 04:47:16;;;;;;;30.20;17.50;;;4.80;99.90;;;;;;5036606;28;20188;-70
2022/12/10 04:49:42;;;;;;;31.53;19.27;;;4.80;99.90;;;;;;5039116;28;20272;-69
2022/12/10 04:52:10;;;;;;;31.43;17.83;;;4.80;99.90;;;;;;5034907;28;20550;-69
2022/12/10 04:54:35;;;;;;;29.10;17.47;;;4.80;99.90;;;;;;5031410;28;20221;-70
2022/12/10 04:57:01;;;;;;;29.57;17.50;;;4.70;99.90;;;;;;5033165;28;20462;-69
2022/12/10 04:59:27;;;;;;;29.97;17.67;;;4.70;99.90;;;;;;5039371;28;20183;-69
2022/12/10 05:01:52;;;;;;;29.47;18.30;;;4.70;99.90;;;;;;5029518;28;20238;-70
2022/12/10 05:04:19;;;;;;;34.53;18.77;;;4.60;99.90;;;;;;5033736;28;20279;-71
2022/12/10 05:06:44;;;;;;;32.23;19.47;;;4.70;99.90;;;;;;5037514;28;20215;-71
2022/12/10 05:09:11;;;;;;;31.17;18.23;;;4.70;99.90;;;;;;5030390;28;21409;-70
2022/12/10 05:11:37;;;;;;;29.90;18.07;;;4.70;99.90;;;;;;5014525;28;20183;-69
2022/12/10 05:14:03;;;;;;;28.70;18.67;;;4.70;99.90;;;;;;5036521;28;20478;-70
2022/12/10 05:16:31;;;;;;;31.27;18.33;;;4.60;99.90;;;;;;5032660;28;20523;-70
2022/12/10 05:18:57;;;;;;;32.23;19.50;;;4.60;99.90;;;;;;5030607;28;20466;-70
2022/12/10 05:23:27;;;;;;;32.27;19.20;;;4.60;99.90;;;;;;5037085;28;20430;-70
2022/12/10 05:24:10;;;;;;;33.03;20.37;;;4.60;99.90;;;;;;5032149;28;20465;-70
2022/12/10 05:26:35;;;;;;;30.83;18.53;;;4.60;99.90;;;;;;5033404;28;20449;-70
2022/12/10 05:29:01;;;;;;;27.53;18.27;;;4.60;99.90;;;;;;5033474;28;20257;-70
2022/12/10 05:31:29;;;;;;;34.33;19.30;;;4.60;99.90;;;;;;5035810;28;20189;-70
2022/12/10 05:33:56;;;;;;;31.27;20.07;;;4.60;99.90;;;;;;5031481;28;21592;-70
2022/12/10 05:36:26;;;;;;;33.30;19.03;;;4.60;99.90;;;;;;5035163;28;20457;-70
2022/12/10 05:38:53;;;;;;;30.20;18.50;;;4.60;99.90;;;;;;5029815;28;20944;-69
2022/12/10 05:41:21;;;;;;;27.63;17.30;;;4.60;99.90;;;;;;5035681;28;22430;-70
2022/12/10 05:43:47;;;;;;;34.83;18.37;;;4.60;99.90;;;;;;5034460;28;20508;-70
2022/12/10 05:46:21;;;;;;;31.20;18.00;;;4.60;99.90;;;;;;5033032;28;21171;-70
2022/12/10 05:48:46;;;;;;;31.50;18.17;;;4.60;99.90;;;;;;5032019;28;20787;-70
2022/12/10 05:51:15;;;;;;;31.07;19.53;;;4.50;99.90;;;;;;5034830;28;20429;-70
2022/12/10 05:53:41;;;;;;;32.40;18.20;;;4.50;99.90;;;;;;5032115;28;20287;-70
2022/12/10 05:56:10;;;;;;;34.77;19.80;;;4.60;99.90;;;;;;5031200;28;20433;-70
2022/12/10 05:58:36;;;;;;;37.70;20.30;;;4.60;99.90;;;;;;5034822;28;20489;-70
2022/12/10 06:01:10;;;;;;;37.13;19.67;;;4.50;99.90;;;;;;5035661;28;20434;-70
2022/12/10 06:03:36;;;;;;;34.97;19.67;;;4.50;99.90;;;;;;5034899;28;20437;-71
2022/12/10 06:06:02;;;;;;;31.60;18.17;;;4.50;99.90;;;;;;5033483;28;20415;-70
2022/12/10 06:08:28;;;;;;;35.60;20.20;;;4.50;99.90;;;;;;5020602;28;21032;-70
2022/12/10 06:10:53;;;;;;;36.23;19.50;;;4.50;99.90;;;;;;5032482;28;20528;-71
2022/12/10 06:13:20;;;;;;;33.67;20.80;;;4.50;99.90;;;;;;5036063;28;20222;-70
2022/12/10 06:15:45;;;;;;;31.90;18.73;;;4.50;99.90;;;;;;5034237;28;20179;-70
2022/12/10 06:18:11;;;;;;;37.63;20.53;;;4.50;99.90;;;;;;5033211;28;20467;-70
2022/12/10 06:20:38;;;;;;;31.00;18.53;;;4.40;99.90;;;;;;5037481;28;20262;-69
2022/12/10 06:23:04;;;;;;;34.10;19.03;;;4.40;99.90;;;;;;5030272;28;20573;-69
2022/12/10 06:25:30;;;;;;;32.40;19.83;;;4.30;99.90;;;;;;5034785;28;20459;-69
2022/12/10 06:27:55;;;;;;;36.80;18.97;;;4.40;99.90;;;;;;5035217;28;20441;-69
2022/12/10 06:30:21;;;;;;;32.77;20.17;;;4.40;99.90;;;;;;5032898;28;20209;-69
2022/12/10 06:32:46;;;;;;;34.03;19.20;;;4.40;99.90;;;;;;5030703;28;20263;-70
2022/12/10 06:35:12;;;;;;;34.00;19.40;;;4.40;99.90;;;;;;5033777;28;20206;-69
2022/12/10 06:37:38;;;;;;;33.47;19.43;;;4.40;99.90;;;;;;5039313;28;20204;-69
2022/12/10 06:40:04;;;;;;;33.73;19.70;;;4.40;99.90;;;;;;5032519;28;20205;-69
2022/12/10 06:42:30;;;;;;;35.80;21.10;;;4.40;99.90;;;;;;5036394;28;20607;-69
2022/12/10 06:44:56;;;;;;;31.50;19.00;;;4.40;99.90;;;;;;5034214;28;20866;-69
2022/12/10 06:47:22;;;;;;;33.20;20.60;;;4.40;99.90;;;;;;5035496;28;20180;-68
2022/12/10 06:49:47;;;;;;;33.00;19.53;;;4.30;99.90;;;;;;5033352;28;21140;-69
2022/12/10 06:52:13;;;;;;;32.07;20.17;;;4.30;99.90;;;;;;5034800;28;20869;-71
2022/12/10 06:54:39;;;;;;;33.83;19.30;;;4.40;99.90;;;;;;5028445;28;20588;-70
2022/12/10 06:57:04;;;;;;;33.67;19.40;;;4.30;99.90;;;;;;5031606;28;20470;-69
2022/12/10 06:59:30;;;;;;;32.80;18.67;;;4.30;99.90;;;;;;5017958;28;20233;-69
2022/12/10 07:01:55;;;;;;;30.70;17.47;;;4.30;99.90;;;;;;5031018;28;20704;-70
2022/12/10 07:04:21;;;;;;;34.20;19.43;;;4.30;99.90;;;;;;5033058;28;20211;-70
2022/12/10 07:06:47;;;;;;;31.27;18.80;;;4.40;99.90;;;;;;5034207;28;20187;-70
2022/12/10 07:09:12;;;;;;;34.53;19.43;;;4.40;99.90;;;;;;5029021;28;21162;-70
2022/12/10 07:11:38;;;;;;;30.80;19.90;;;4.30;99.90;;;;;;5032746;28;20184;-69
2022/12/10 07:14:04;;;;;;;32.10;19.00;;;4.30;99.90;;;;;;5027845;28;20224;-70
2022/12/10 07:16:31;;;;;;;29.33;18.23;;;4.30;99.90;;;;;;5028063;28;20958;-70
2022/12/10 07:18:59;;;;;;;33.73;20.00;;;4.30;99.90;;;;;;5026078;28;20435;-70
2022/12/10 07:21:43;;;;;;;33.93;20.33;;;4.30;99.90;;;;;;5029341;28;20461;-70
2022/12/10 07:24:14;;;;;;;33.90;20.67;;;4.30;99.90;;;;;;5027010;28;20463;-69
2022/12/10 07:26:41;;;;;;;35.30;18.60;;;4.40;99.90;;;;;;5025409;28;20438;-69
2022/12/10 07:29:12;;;;;;;32.07;17.73;;;4.40;99.90;;;;;;5025326;28;20743;-69
2022/12/10 07:31:37;;;;;;;38.07;20.60;;;4.40;99.90;;;;;;5028156;28;20442;-70
2022/12/10 07:34:03;;;;;;;31.40;18.43;;;4.40;99.90;;;;;;5031270;28;20454;-69
2022/12/10 07:36:29;;;;;;;35.27;21.10;;;4.40;99.90;;;;;;5030089;28;20214;-69
2022/12/10 07:38:55;;;;;;;31.33;19.13;;;4.40;99.90;;;;;;5027192;28;20219;-69
2022/12/10 07:41:22;;;;;;;32.77;19.30;;;4.40;99.90;;;;;;5028938;28;20190;-69
2022/12/10 07:43:48;;;;;;;33.63;18.20;;;4.40;99.90;;;;;;5032765;28;20577;-70
2022/12/10 07:46:20;;;;;;;31.53;17.80;;;4.40;99.90;;;;;;5030391;28;20427;-70
2022/12/10 07:48:47;;;;;;;34.37;19.50;;;4.40;99.90;;;;;;5031802;28;20183;-69
2022/12/10 07:51:14;;;;;;;30.33;18.67;;;4.40;99.90;;;;;;5030300;28;20819;-70
2022/12/10 07:53:40;;;;;;;28.37;17.17;;;4.40;99.90;;;;;;5031934;28;20476;-70
2022/12/10 07:56:06;;;;;;;34.93;20.17;;;4.40;99.90;;;;;;5017414;28;20434;-70
2022/12/10 07:58:32;;;;;;;35.77;20.10;;;4.40;99.90;;;;;;5029571;28;20176;-71
2022/12/10 08:00:58;;;;;;;38.30;19.80;;;4.40;99.90;;;;;;5018389;28;20533;-71
2022/12/10 08:03:24;;;;;;;28.90;16.87;;;4.40;99.90;;;;;;5027954;28;20438;-71
2022/12/10 08:06:01;;;;;;;31.53;17.70;;;4.40;99.90;;;;;;5028483;28;20505;-70
2022/12/10 08:08:26;;;;;;;32.23;18.00;;;4.40;99.90;;;;;;5034960;28;20476;-70
2022/12/10 08:10:52;;;;;;;35.03;17.07;;;4.40;99.90;;;;;;5034807;28;20502;-70
2022/12/10 08:13:17;;;;;;;30.50;17.20;;;4.30;99.90;;;;;;5037349;28;21748;-70
2022/12/10 08:15:43;;;;;;;30.77;18.33;;;4.30;99.90;;;;;;5033794;28;20652;-70
2022/12/10 08:18:08;;;;;;;33.00;20.40;;;4.40;99.90;;;;;;5029277;28;22275;-70
2022/12/10 08:20:35;;;;;;;30.07;17.60;;;4.40;99.90;;;;;;5031332;28;20805;-70
2022/12/10 08:23:01;;;;;;;33.40;17.30;;;4.40;99.90;;;;;;5011073;28;20664;-70
2022/12/10 08:25:26;;;;;;;29.10;17.10;;;4.40;99.90;;;;;;5032825;28;22523;-69
2022/12/10 08:27:52;;;;;;;35.27;17.90;;;4.40;99.90;;;;;;5032465;28;20456;-70
2022/12/10 08:30:18;;;;;;;30.60;17.73;;;4.40;99.90;;;;;;5035717;28;20194;-69
2022/12/10 08:32:43;;;;;;;29.37;18.00;;;4.40;99.90;;;;;;5036148;28;20184;-70
2022/12/10 08:35:09;;;;;;;28.73;16.83;;;4.40;99.90;;;;;;5030351;28;20223;-70
2022/12/10 08:37:34;;;;;;;27.90;17.43;;;4.30;99.90;;;;;;5035954;28;20242;-70
2022/12/10 08:40:00;;;;;;;27.20;17.40;;;4.40;99.90;;;;;;5031032;28;20184;-70
2022/12/10 08:42:25;;;;;;;30.83;17.83;;;4.30;99.90;;;;;;5037329;28;20191;-70
2022/12/10 08:44:51;;;;;;;30.37;18.13;;;4.40;99.90;;;;;;5032259;28;20212;-70
2022/12/10 08:47:16;;;;;;;33.53;18.20;;;4.30;99.90;;;;;;5033974;28;20196;-71
2022/12/10 08:49:42;;;;;;;29.57;16.30;;;4.40;99.90;;;;;;5031622;28;20192;-70
2022/12/10 08:52:08;;;;;;;28.20;17.43;;;4.30;99.90;;;;;;5030737;28;20452;-71
2022/12/10 08:54:33;;;;;;;26.80;17.47;;;4.40;99.90;;;;;;5028318;28;20285;-70
2022/12/10 08:56:59;;;;;;;28.97;17.83;;;4.40;99.90;;;;;;5016677;28;20761;-71
2022/12/10 08:59:25;;;;;;;27.97;16.83;;;4.40;99.90;;;;;;5032673;28;20187;-71
2022/12/10 09:01:53;;;;;;;32.53;18.00;;;4.40;99.90;;;;;;5032338;28;20632;-71
2022/12/10 09:04:19;;;;;;;30.70;16.67;;;4.40;99.90;;;;;;5031820;28;20214;-71
2022/12/10 09:06:45;;;;;;;27.40;15.60;;;4.50;99.90;;;;;;5032265;28;20436;-71
2022/12/10 09:09:10;;;;;;;26.27;16.67;;;4.50;99.90;;;;;;5033581;28;20708;-71
2022/12/10 09:11:36;;;;;;;27.60;18.97;;;4.50;99.90;;;;;;5032327;28;20568;-72
2022/12/10 09:14:02;;;;;;;30.17;18.50;;;4.60;99.90;;;;;;5032669;28;20680;-71
2022/12/10 09:16:38;;;;;;;27.60;16.50;;;4.50;99.90;;;;;;5033417;28;20216;-71
2022/12/10 09:19:04;;;;;;;27.30;16.83;;;4.50;99.90;;;;;;5032020;28;20180;-71
2022/12/10 09:21:30;;;;;;;22.53;14.60;;;4.60;99.90;;;;;;5035730;28;20505;-71
2022/12/10 09:23:57;;;;;;;27.37;16.40;;;4.70;99.90;;;;;;5033369;28;20483;-72
2022/12/10 09:26:24;;;;;;;29.90;16.23;;;4.60;99.90;;;;;;5023225;28;20803;-72
2022/12/10 09:28:50;;;;;;;21.50;13.73;;;4.70;99.90;;;;;;5038140;28;20436;-71
2022/12/10 09:31:17;;;;;;;23.87;16.33;;;4.70;99.90;;;;;;5032199;28;20466;-71
2022/12/10 09:33:44;;;;;;;25.13;15.37;;;4.70;99.90;;;;;;5033668;28;20465;-71
2022/12/10 09:36:11;;;;;;;30.37;16.83;;;4.70;99.90;;;;;;5036416;28;20451;-71
2022/12/10 09:38:39;;;;;;;25.23;15.03;;;4.60;99.90;;;;;;5026629;28;21185;-71
2022/12/10 09:41:17;;;;;;;23.60;14.97;;;4.70;99.90;;;;;;5025076;28;20436;-71
2022/12/10 09:43:59;;;;;;;24.97;15.63;;;4.80;99.90;;;;;;5037888;28;20438;-71
2022/12/10 09:46:51;;;;;;;23.03;14.80;;;4.80;99.90;;;;;;5030631;28;20438;-71
2022/12/10 09:49:24;;;;;;;23.27;14.60;;;4.90;99.90;;;;;;5016899;28;21046;-71
2022/12/10 09:51:54;;;;;;;24.30;15.23;;;4.80;99.90;;;;;;5035471;28;20949;-71
2022/12/10 09:54:26;;;;;;;25.13;15.47;;;4.80;99.90;;;;;;5036842;28;20461;-70
2022/12/10 09:56:53;;;;;;;23.00;15.77;;;4.80;99.90;;;;;;5041277;28;20467;-71
2022/12/10 09:59:36;;;;;;;21.40;13.93;;;4.70;99.90;;;;;;5030403;28;20475;-71
2022/12/10 10:02:26;;;;;;;21.60;14.37;;;4.70;99.90;;;;;;5033076;28;20462;-71
2022/12/10 10:05:00;;;;;;;23.37;14.20;;;4.80;99.90;;;;;;5029765;28;20889;-71
2022/12/10 10:07:29;;;;;;;27.13;15.37;;;4.80;99.90;;;;;;5021590;28;20449;-71
2022/12/10 10:10:11;;;;;;;23.87;14.87;;;4.80;99.90;;;;;;5032880;28;20438;-71
2022/12/10 10:12:38;;;;;;;21.17;14.60;;;4.90;99.90;;;;;;5031218;28;20532;-71
2022/12/10 10:15:14;;;;;;;23.73;15.80;;;4.90;99.90;;;;;;5033239;28;20471;-71
2022/12/10 10:17:45;;;;;;;27.40;15.90;;;4.90;99.90;;;;;;5033291;28;20493;-71
2022/12/10 10:20:12;;;;;;;21.60;14.47;;;4.90;99.90;;;;;;5033945;28;20944;-71
2022/12/10 10:22:38;;;;;;;22.77;14.30;;;4.90;99.90;;;;;;5032154;28;20426;-71
2022/12/10 10:25:05;;;;;;;21.50;16.13;;;4.80;99.90;;;;;;5030333;28;20557;-71
2022/12/10 10:27:33;;;;;;;24.10;14.80;;;4.90;99.90;;;;;;5020133;28;20449;-71
2022/12/10 10:30:01;;;;;;;24.13;15.70;;;4.90;99.90;;;;;;5035561;28;20436;-71
2022/12/10 10:32:47;;;;;;;24.43;14.80;;;4.90;99.90;;;;;;5032782;28;20509;-71
2022/12/10 10:35:28;;;;;;;22.00;15.07;;;4.90;99.90;;;;;;5033701;28;20462;-71
2022/12/10 10:38:04;;;;;;;20.83;14.10;;;4.90;99.90;;;;;;5032086;28;20470;-71
2022/12/10 10:40:41;;;;;;;24.80;14.77;;;4.90;99.90;;;;;;5031438;28;20488;-70
2022/12/10 10:43:31;;;;;;;23.40;15.17;;;5.00;99.90;;;;;;5031932;28;20447;-70
2022/12/10 10:46:10;;;;;;;23.17;15.20;;;5.00;99.90;;;;;;5035658;28;20410;-70
2022/12/10 10:48:36;;;;;;;22.07;13.60;;;5.00;99.90;;;;;;5032571;28;20537;-70
2022/12/10 10:51:12;;;;;;;25.67;15.30;;;5.00;99.90;;;;;;5018032;28;20579;-70
2022/12/10 10:53:38;;;;;;;26.27;15.70;;;5.00;99.90;;;;;;5031619;28;20199;-70
2022/12/10 10:56:22;;;;;;;22.23;14.50;;;5.00;99.90;;;;;;5032619;28;20438;-70
2022/12/10 10:59:02;;;;;;;19.47;13.33;;;5.10;99.90;;;;;;5020403;28;20266;-70
2022/12/10 11:01:49;;;;;;;23.47;15.73;;;5.10;99.90;;;;;;5026487;28;20470;-70
2022/12/10 11:04:16;;;;;;;27.53;15.03;;;5.10;99.90;;;;;;5020323;28;20464;-70
2022/12/10 11:06:43;;;;;;;28.27;15.80;;;5.20;99.90;;;;;;5021633;28;21084;-70
2022/12/10 11:09:26;;;;;;;23.97;15.40;;;5.10;99.90;;;;;;5028538;28;20466;-70
2022/12/10 11:12:02;;;;;;;26.13;16.67;;;5.20;99.90;;;;;;5033517;28;20435;-69
2022/12/10 11:14:38;;;;;;;22.70;14.17;;;5.20;99.90;;;;;;5036673;28;20874;-70
2022/12/10 11:17:21;;;;;;;24.17;14.77;;;5.10;99.90;;;;;;5030759;28;20549;-70
2022/12/10 11:19:59;;;;;;;22.83;14.80;;;5.10;99.90;;;;;;5033251;28;20846;-70
2022/12/10 11:22:28;;;;;;;23.63;14.93;;;5.10;99.90;;;;;;5035497;28;20419;-70
2022/12/10 11:24:54;;;;;;;21.03;13.70;;;5.20;99.90;;;;;;5030654;28;20461;-70
2022/12/10 11:27:31;;;;;;;23.83;15.10;;;5.10;99.90;;;;;;5032202;28;20927;-70
2022/12/10 11:30:03;;;;;;;21.80;14.67;;;5.10;99.90;;;;;;5029544;28;20246;-71
2022/12/10 11:32:57;;;;;;;25.30;15.30;;;5.20;99.90;;;;;;5036504;28;20430;-72
2022/12/10 11:35:46;;;;;;;21.57;14.37;;;5.30;99.90;;;;;;5029408;28;20450;-72
2022/12/10 11:38:28;;;;;;;22.20;14.20;;;5.30;99.90;;;;;;5032510;28;20468;-70
2022/12/10 11:41:15;;;;;;;22.83;14.27;;;5.30;99.90;;;;;;5032162;28;20436;-70
2022/12/10 11:43:47;;;;;;;23.87;15.10;;;5.40;99.90;;;;;;5034341;28;20658;-71
2022/12/10 11:46:12;;;;;;;21.43;15.57;;;5.40;99.90;;;;;;5032206;28;20417;-71
2022/12/10 11:48:50;;;;;;;22.03;14.67;;;5.50;99.90;;;;;;5038306;28;20650;-71
2022/12/10 11:51:38;;;;;;;21.63;14.50;;;5.50;99.90;;;;;;5030000;28;20237;-71
2022/12/10 11:54:14;;;;;;;22.13;14.57;;;5.50;99.90;;;;;;5030346;28;20447;-71
2022/12/10 11:56:46;;;;;;;24.67;13.53;;;5.50;99.90;;;;;;5030795;28;20457;-71
2022/12/10 11:59:24;;;;;;;20.40;13.97;;;5.60;99.90;;;;;;5031299;28;20436;-71
2022/12/10 12:02:16;;;;;;;21.00;13.63;;;5.60;99.90;;;;;;5031382;28;20457;-71
2022/12/10 12:05:24;;;;;;;21.43;14.27;;;5.60;99.90;;;;;;5031184;28;20458;-71
2022/12/10 12:07:52;;;;;;;22.40;15.17;;;5.60;99.90;;;;;;5033899;28;20525;-71
2022/12/10 12:10:40;;;;;;;21.30;14.30;;;5.70;99.90;;;;;;5031059;28;20435;-71
2022/12/10 12:13:14;;;;;;;25.43;15.10;;;5.60;99.90;;;;;;5031299;28;20534;-71
2022/12/10 12:15:48;;;;;;;20.87;15.27;;;5.60;99.90;;;;;;5034854;28;20453;-71
2022/12/10 12:18:36;;;;;;;23.63;14.77;;;5.60;99.90;;;;;;5034204;28;20469;-71
2022/12/10 12:21:07;;;;;;;24.03;14.90;;;5.60;99.90;;;;;;5034116;28;20441;-71
2022/12/10 12:23:58;;;;;;;23.37;15.87;;;5.60;99.90;;;;;;5032227;28;20482;-71
2022/12/10 12:26:40;;;;;;;26.43;15.83;;;5.60;99.90;;;;;;5031320;28;20432;-71
2022/12/10 12:29:25;;;;;;;22.47;15.10;;;5.60;99.90;;;;;;5030419;28;20456;-71
2022/12/10 12:32:23;;;;;;;23.40;15.60;;;5.50;99.90;;;;;;5034982;28;20503;-71
2022/12/10 12:34:51;;;;;;;23.13;15.63;;;5.50;99.90;;;;;;5032556;28;20502;-71
2022/12/10 12:37:21;;;;;;;27.80;16.10;;;5.50;99.90;;;;;;5031885;28;20533;-71
2022/12/10 12:39:58;;;;;;;22.50;13.87;;;5.50;99.90;;;;;;5031577;28;20437;-71
2022/12/10 12:42:38;;;;;;;23.73;16.40;;;5.60;99.90;;;;;;5031257;28;20435;-71
2022/12/10 12:45:21;;;;;;;17.30;12.20;;;5.70;99.90;;;;;;5034932;28;20473;-71
2022/12/10 12:48:01;;;;;;;22.57;14.80;;;5.70;99.90;;;;;;5040927;28;20438;-71
2022/12/10 12:51:00;;;;;;;25.77;16.00;;;5.70;99.90;;;;;;5037960;28;20848;-71
2022/12/10 12:53:25;;;;;;;20.30;13.87;;;5.80;99.90;;;;;;5034926;28;20450;-71
2022/12/10 12:56:16;;;;;;;20.07;14.23;;;5.80;99.90;;;;;;5031956;28;20439;-70
2022/12/10 12:58:58;;;;;;;22.00;14.73;;;5.80;99.90;;;;;;5033671;28;20194;-71